sim
Sign-in with your pilot id or email,
or register
Callsign
Passwort

Schedule Details

Flight Number: OEO8993
Departure: Genoa Cristoforo Colombo Airport (LIMJ) at 11:05
Arrival: Munich Airport (EDDM) at 12:25

Weather Information
Getting current METAR information for LIMJ 211120Z 28003KT 240V320 9999 FEW025 22/18 Q1016
Getting current METAR information for EDDM 211120Z 06004KT 010V130 CAVOK 21/13 Q1017 NOSIG

Schedule Frequency

Route Map